Time;durP1;ratioP1;P1;durP2;ratioP2;P2;SDS_P1;SDS_P2;PMS_P1;PMS_P2;Temp;Humidity;BMP_temperature;BMP_pressure;BME280_temperature;BME280_humidity;BME280_pressure;Samples;Min_cycle;Max_cycle;Signal;HPM_P1;HPM_P2
2024/03/05 00:01:27;;;;;;;33.58;13.27;;;;;;;11.47;64.41;99961.00;10344579;28;20428;-58
2024/03/05 00:06:29;;;;;;;32.05;12.90;;;;;;;11.46;64.42;99957.47;10346558;28;20045;-60
2024/03/05 00:11:30;;;;;;;29.83;13.30;;;;;;;11.49;64.31;99959.78;10338808;28;20058;-60
2024/03/05 00:16:32;;;;;;;38.95;14.23;;;;;;;11.43;64.22;99957.03;10304468;28;20134;-59
2024/03/05 00:21:34;;;;;;;28.05;13.13;;;;;;;11.39;64.36;99953.03;10305720;28;20269;-59
2024/03/05 00:26:36;;;;;;;29.35;11.93;;;;;;;11.36;64.33;99954.28;10305151;28;20105;-59
2024/03/05 00:31:40;;;;;;;29.25;12.40;;;;;;;11.42;64.25;99950.81;10296773;28;20051;-60
2024/03/05 00:36:43;;;;;;;31.15;12.52;;;;;;;11.46;64.49;99953.97;10303229;28;20070;-60
2024/03/05 00:41:45;;;;;;;30.10;12.20;;;;;;;11.45;64.27;99953.13;10304216;28;20054;-59
2024/03/05 00:46:47;;;;;;;30.80;12.55;;;;;;;11.38;64.41;99948.69;10304409;28;20058;-60
2024/03/05 00:51:49;;;;;;;30.02;11.68;;;;;;;11.40;64.78;99950.16;10299391;28;20122;-59
2024/03/05 00:56:51;;;;;;;34.10;14.10;;;;;;;11.34;64.62;99948.25;10302537;28;20074;-59
2024/03/05 01:01:55;;;;;;;35.45;13.48;;;;;;;11.31;64.69;99949.47;10297977;28;20056;-60
2024/03/05 01:06:57;;;;;;;32.40;13.05;;;;;;;11.25;64.98;99944.81;10304577;28;20042;-60
2024/03/05 01:11:59;;;;;;;37.60;14.00;;;;;;;11.23;65.09;99941.50;10316409;28;20744;-60
2024/03/05 01:17:04;;;;;;;32.42;13.15;;;;;;;11.25;64.84;99939.44;10353040;28;20053;-59
2024/03/05 01:22:06;;;;;;;35.97;13.55;;;;;;;11.26;64.77;99951.88;10350531;28;20039;-60
2024/03/05 01:27:08;;;;;;;35.97;13.80;;;;;;;11.31;64.51;99949.47;10350988;28;20075;-60
2024/03/05 01:32:12;;;;;;;33.92;14.52;;;;;;;11.36;64.43;99942.69;10348898;28;20060;-60
2024/03/05 01:37:14;;;;;;;37.72;14.85;;;;;;;11.29;64.50;99946.13;10345966;28;20080;-60
2024/03/05 01:42:19;;;;;;;37.70;12.93;;;;;;;11.39;64.63;99942.28;10347459;28;20137;-60
2024/03/05 01:47:21;;;;;;;38.15;14.88;;;;;;;11.39;64.41;99937.72;10348380;28;20058;-60
2024/03/05 01:52:23;;;;;;;39.95;15.15;;;;;;;11.24;64.73;99937.78;10350933;28;20053;-60
2024/03/05 01:57:26;;;;;;;34.58;13.48;;;;;;;11.17;65.09;99944.94;10349071;28;20057;-60
2024/03/05 02:02:29;;;;;;;35.13;14.13;;;;;;;11.20;64.91;99941.88;10347595;28;20076;-60
2024/03/05 02:07:32;;;;;;;40.25;14.55;;;;;;;11.15;64.89;99944.31;10354375;28;20062;-60
2024/03/05 02:12:37;;;;;;;39.97;14.20;;;;;;;11.13;64.99;99949.03;10336933;28;20125;-60
2024/03/05 02:17:45;;;;;;;38.90;14.98;;;;;;;11.09;65.10;99945.06;10315360;28;20113;-60
2024/03/05 02:22:47;;;;;;;37.20;13.65;;;;;;;11.15;64.95;99960.44;10305307;28;20066;-60
2024/03/05 02:27:52;;;;;;;39.65;15.07;;;;;;;11.16;65.00;99955.88;10297752;28;20047;-60
2024/03/05 02:32:54;;;;;;;39.75;14.10;;;;;;;11.14;65.02;99955.25;10301006;28;20157;-60
2024/03/05 02:37:55;;;;;;;34.20;13.73;;;;;;;11.15;65.19;99949.69;10294835;28;20053;-60
2024/03/05 02:42:58;;;;;;;41.08;15.55;;;;;;;11.19;64.92;99950.16;10294373;28;20070;-60
2024/03/05 02:48:08;;;;;;;39.53;14.23;;;;;;;11.16;65.32;99956.75;10295806;28;20108;-60
2024/03/05 02:53:13;;;;;;;45.40;16.05;;;;;;;11.20;65.04;99959.91;10294889;28;20043;-60
2024/03/05 02:58:16;;;;;;;39.40;13.52;;;;;;;11.21;65.38;99956.16;10298896;28;20047;-59
2024/03/05 03:03:18;;;;;;;37.30;14.57;;;;;;;11.19;65.21;99953.66;10298216;28;20124;-59
2024/03/05 03:08:20;;;;;;;40.83;14.60;;;;;;;11.19;65.79;99952.84;10298573;28;20051;-60
2024/03/05 03:13:23;;;;;;;47.92;15.25;;;;;;;11.17;65.46;99957.56;10296228;28;20074;-60
2024/03/05 03:18:24;;;;;;;36.08;13.73;;;;;;;11.17;65.20;99965.66;10305663;28;20053;-60
2024/03/05 03:23:26;;;;;;;36.35;14.52;;;;;;;11.16;64.99;99961.28;10308898;28;20182;-60
2024/03/05 03:28:29;;;;;;;40.38;14.15;;;;;;;11.13;65.31;99957.13;10311520;28;20162;-59
2024/03/05 03:33:31;;;;;;;39.00;13.57;;;;;;;11.19;65.42;99967.09;10315631;28;20067;-60
2024/03/05 03:38:36;;;;;;;36.97;13.30;;;;;;;11.19;65.21;99961.72;10315201;28;20050;-59
2024/03/05 03:43:38;;;;;;;37.67;13.70;;;;;;;11.19;65.11;99961.72;10314874;28;20156;-59
2024/03/05 03:48:40;;;;;;;40.60;14.15;;;;;;;11.21;65.40;99957.00;10314099;28;20066;-59
2024/03/05 03:53:43;;;;;;;35.22;12.95;;;;;;;11.20;64.82;99957.22;10317045;28;20059;-59
2024/03/05 03:58:45;;;;;;;41.58;14.50;;;;;;;11.22;64.84;99955.97;10310133;28;20046;-60
2024/03/05 04:03:50;;;;;;;37.85;14.70;;;;;;;11.22;64.89;99958.69;10311600;28;20056;-59
2024/03/05 04:08:52;;;;;;;38.33;13.05;;;;;;;11.22;65.29;99968.59;10315776;28;20050;-59
2024/03/05 04:13:54;;;;;;;31.40;12.52;;;;;;;11.13;65.37;99965.19;10315440;28;20089;-60
2024/03/05 04:18:57;;;;;;;39.53;13.20;;;;;;;10.97;66.02;99960.84;10316406;28;20073;-59
2024/03/05 04:23:59;;;;;;;36.30;14.63;;;;;;;11.10;65.36;99960.19;10300141;28;20430;-59
2024/03/05 04:29:02;;;;;;;37.47;15.27;;;;;;;11.12;65.84;99958.16;10311529;28;20081;-59
2024/03/05 04:34:05;;;;;;;43.78;14.95;;;;;;;11.10;65.40;99962.88;10310212;28;20058;-58
2024/03/05 04:39:09;;;;;;;36.13;13.82;;;;;;;10.94;65.95;99980.06;10295174;28;20042;-57
2024/03/05 04:44:14;;;;;;;39.58;15.93;;;;;;;10.95;65.66;99981.72;10306540;28;20105;-56
2024/03/05 04:49:16;;;;;;;41.53;14.07;;;;;;;10.94;65.85;99981.91;10291764;28;20053;-58
2024/03/05 04:54:18;;;;;;;42.45;14.75;;;;;;;10.93;66.08;99989.16;10303537;28;20047;-57
2024/03/05 04:59:20;;;;;;;44.63;13.43;;;;;;;10.93;65.71;99983.78;10307258;28;20145;-58
2024/03/05 05:04:22;;;;;;;46.10;15.15;;;;;;;10.99;65.77;99992.94;10303825;28;20132;-58
2024/03/05 05:09:24;;;;;;;41.08;12.85;;;;;;;11.00;65.92;99995.47;10299119;28;20046;-58
2024/03/05 05:14:26;;;;;;;33.20;12.48;;;;;;;10.99;66.16;99998.31;10336202;28;20053;-57
2024/03/05 05:19:28;;;;;;;38.10;13.18;;;;;;;10.85;66.49;100003.53;10345284;28;20038;-58
2024/03/05 05:24:31;;;;;;;42.80;14.50;;;;;;;10.83;66.22;99999.38;10346401;28;20061;-58
2024/03/05 05:29:33;;;;;;;39.70;14.57;;;;;;;10.80;66.77;100002.41;10342241;28;20035;-58
2024/03/05 05:34:46;;;;;;;33.58;12.65;;;;;;;10.70;66.57;100000.00;10338361;28;20125;-58
2024/03/05 05:39:47;;;;;;;41.83;12.43;;;;;;;10.74;66.76;100000.47;10338400;28;20053;-60
2024/03/05 05:44:52;;;;;;;41.45;14.70;;;;;;;10.87;66.45;100003.34;10345005;28;20050;-60
2024/03/05 05:49:58;;;;;;;38.05;13.55;;;;;;;10.90;66.23;100003.81;10350298;28;20039;-59
2024/03/05 05:55:00;;;;;;;35.13;12.88;;;;;;;10.86;65.84;100009.72;10348945;28;20054;-58
2024/03/05 06:00:07;;;;;;;40.33;12.65;;;;;;;10.86;66.16;100018.66;10347642;28;20148;-61
2024/03/05 06:05:09;;;;;;;37.17;12.68;;;;;;;10.91;66.22;100008.16;10334999;28;20153;-62
2024/03/05 06:10:17;;;;;;;32.42;13.20;;;;;;;10.93;65.95;100016.03;10313706;28;20267;-62
2024/03/05 06:15:19;;;;;;;43.17;14.15;;;;;;;10.96;65.83;100020.19;10301479;28;20073;-62
2024/03/05 06:20:21;;;;;;;37.97;13.95;;;;;;;10.97;66.21;100022.72;10295643;28;20050;-62
2024/03/05 06:25:27;;;;;;;35.75;11.75;;;;;;;11.01;65.75;100023.19;10300722;28;20046;-62
2024/03/05 06:30:29;;;;;;;40.55;12.75;;;;;;;11.05;65.93;100029.84;10302100;28;20050;-61
2024/03/05 06:35:31;;;;;;;36.95;13.65;;;;;;;11.05;65.83;100024.47;10303198;28;20047;-64
2024/03/05 06:40:35;;;;;;;36.47;13.40;;;;;;;11.13;65.66;100034.28;10297532;28;20061;-63
2024/03/05 06:45:37;;;;;;;41.88;14.57;;;;;;;11.18;65.32;100029.19;10298298;28;20147;-61
2024/03/05 06:50:42;;;;;;;32.10;12.32;;;;;;;11.22;65.19;100036.69;10282961;28;20391;-60
2024/03/05 07:01:08;;;;;;;39.33;12.18;;;;;;;11.34;64.91;100047.81;10294962;28;20116;-66
2024/03/05 07:06:12;;;;;;;32.83;12.15;;;;;;;11.39;64.95;100039.16;10295404;28;20051;-63
2024/03/05 07:11:18;;;;;;;40.53;13.65;;;;;;;11.38;65.13;100048.28;10297925;28;20050;-62
2024/03/05 07:16:20;;;;;;;37.08;12.23;;;;;;;11.42;65.07;100049.56;10297625;28;20636;-63
2024/03/05 07:21:23;;;;;;;30.85;12.32;;;;;;;11.41;65.10;100054.09;10297717;28;20043;-63
2024/03/05 07:26:26;;;;;;;35.95;12.95;;;;;;;11.42;65.18;100058.47;10297909;28;20114;-62
2024/03/05 07:31:28;;;;;;;30.92;13.15;;;;;;;11.34;65.38;100055.06;10298578;28;20133;-63
2024/03/05 07:36:30;;;;;;;38.88;13.23;;;;;;;11.31;65.87;100065.19;10292849;28;20130;-63
2024/03/05 07:41:32;;;;;;;31.35;13.07;;;;;;;11.32;65.66;100063.31;10295323;28;20055;-62
2024/03/05 07:46:35;;;;;;;39.55;14.32;;;;;;;11.40;65.78;100057.81;10294626;28;20051;-63
2024/03/05 07:51:37;;;;;;;36.47;14.38;;;;;;;11.49;65.24;100053.16;10296442;28;20427;-63
2024/03/05 07:56:46;;;;;;;36.60;14.27;;;;;;;11.60;65.67;100051.84;10297626;28;20063;-63
2024/03/05 08:01:47;;;;;;;42.17;14.45;;;;;;;11.65;65.25;100050.25;10281649;28;20081;-61
2024/03/05 08:06:49;;;;;;;41.92;16.55;;;;;;;11.71;65.22;100062.94;10305948;28;20113;-61
2024/03/05 08:11:51;;;;;;;37.70;13.27;;;;;;;11.87;65.20;100058.34;10301288;28;20612;-62
2024/03/05 08:16:52;;;;;;;43.03;16.38;;;;;;;11.93;65.46;100054.06;10301400;28;20117;-61
2024/03/05 08:21:54;;;;;;;39.15;15.02;;;;;;;12.14;64.46;100055.94;10304438;28;20557;-68
2024/03/05 08:26:57;;;;;;;39.28;14.18;;;;;;;12.32;64.19;100066.22;10301666;28;20375;-62
2024/03/05 08:31:59;;;;;;;45.90;15.15;;;;;;;12.22;64.44;100062.03;10306723;28;20042;-61
2024/03/05 08:37:01;;;;;;;39.75;13.55;;;;;;;12.32;64.38;100061.66;10302521;28;20058;-61
2024/03/05 08:42:03;;;;;;;38.55;15.60;;;;;;;12.39;63.79;100062.56;10300086;28;20173;-62
2024/03/05 08:47:07;;;;;;;35.03;14.30;;;;;;;12.23;63.89;100074.47;10300830;28;20054;-62
2024/03/05 08:52:09;;;;;;;38.80;14.23;;;;;;;12.05;64.10;100069.53;10298761;28;20165;-61
2024/03/05 08:57:11;;;;;;;37.50;14.10;;;;;;;12.05;63.73;100064.16;10303018;28;20125;-61
2024/03/05 09:02:13;;;;;;;36.70;13.70;;;;;;;12.07;63.12;100070.16;10300880;28;20051;-62
2024/03/05 09:07:15;;;;;;;38.45;12.90;;;;;;;12.21;63.26;100073.00;10304237;28;20054;-62
2024/03/05 09:12:17;;;;;;;38.33;13.43;;;;;;;12.24;62.48;100070.75;10300024;28;20058;-61
2024/03/05 09:17:19;;;;;;;39.53;14.55;;;;;;;12.26;62.65;100076.78;10303740;28;20410;-63
2024/03/05 09:22:20;;;;;;;35.17;13.02;;;;;;;12.14;62.73;100064.00;10304757;28;20047;-62
2024/03/05 09:27:22;;;;;;;34.28;12.95;;;;;;;12.18;62.76;100068.81;10302661;28;20104;-63
2024/03/05 09:32:27;;;;;;;39.28;14.77;;;;;;;12.31;62.56;100073.50;10294380;28;20054;-63
2024/03/05 09:37:29;;;;;;;42.85;14.27;;;;;;;12.50;62.08;100072.00;10299926;28;20046;-62
2024/03/05 09:42:31;;;;;;;33.88;14.43;;;;;;;12.67;61.88;100073.34;10299465;28;20134;-62
2024/03/05 09:47:37;;;;;;;37.92;14.98;;;;;;;12.71;62.49;100076.50;10299361;28;20047;-63
2024/03/05 09:52:39;;;;;;;36.78;14.57;;;;;;;12.81;62.37;100085.06;10299884;28;20051;-62
2024/03/05 09:57:42;;;;;;;39.88;15.48;;;;;;;12.59;62.99;100087.00;10298876;28;20747;-61
2024/03/05 10:02:51;;;;;;;38.22;15.00;;;;;;;12.48;63.37;100092.94;10296412;28;20055;-62
2024/03/05 10:07:55;;;;;;;34.50;13.98;;;;;;;12.29;63.28;100097.13;10300953;28;20060;-62
2024/03/05 10:13:02;;;;;;;35.83;13.88;;;;;;;12.33;63.47;100097.56;10297621;28;20143;-63
2024/03/05 10:18:07;;;;;;;35.72;14.23;;;;;;;12.37;63.21;100101.53;10300238;28;20050;-63
2024/03/05 10:23:10;;;;;;;37.20;16.42;;;;;;;12.21;63.89;100106.16;10297245;28;20105;-64
2024/03/05 10:28:21;;;;;;;37.55;13.88;;;;;;;12.19;63.42;100110.91;10298212;28;20065;-62
2024/03/05 10:33:29;;;;;;;36.20;13.98;;;;;;;12.31;63.71;100108.53;10301950;28;20062;-63
2024/03/05 10:38:34;;;;;;;32.58;14.55;;;;;;;12.23;63.86;100105.97;10293824;28;20060;-63
2024/03/05 10:43:36;;;;;;;37.47;14.90;;;;;;;12.44;63.46;100102.41;10295801;28;20055;-62
2024/03/05 10:48:41;;;;;;;39.60;14.50;;;;;;;12.29;63.92;100105.19;10295714;28;20074;-62
2024/03/05 10:53:43;;;;;;;33.90;13.93;;;;;;;12.22;63.99;100107.84;10299100;28;20054;-62
2024/03/05 11:03:52;;;;;;;42.33;15.65;;;;;;;12.37;63.45;100107.75;10295388;28;20109;-63
2024/03/05 11:08:59;;;;;;;34.92;13.65;;;;;;;12.20;64.07;100103.66;10297843;28;20457;-61
2024/03/05 11:14:03;;;;;;;41.53;16.20;;;;;;;12.09;64.24;100105.00;10295861;28;20058;-62
2024/03/05 11:19:08;;;;;;;39.05;15.27;;;;;;;12.22;63.98;100099.75;10298871;28;20046;-61
2024/03/05 11:24:12;;;;;;;40.22;15.15;;;;;;;12.21;64.04;100108.03;10298847;28;20096;-62
2024/03/05 11:29:22;;;;;;;45.70;16.27;;;;;;;12.18;64.90;100100.31;10303617;28;20057;-62
2024/03/05 11:34:28;;;;;;;32.80;14.00;;;;;;;12.48;64.49;100104.53;10295113;28;20054;-61
2024/03/05 11:39:30;;;;;;;41.50;15.88;;;;;;;12.32;64.23;100104.78;10310280;28;20118;-62
2024/03/05 11:44:31;;;;;;;42.80;16.42;;;;;;;12.39;64.26;100103.00;10308030;28;20058;-58
2024/03/05 11:49:37;;;;;;;39.67;16.13;;;;;;;12.45;64.16;100106.78;10307519;28;20587;-60
2024/03/05 11:54:39;;;;;;;38.67;14.43;;;;;;;12.49;64.02;100100.81;10306987;28;20057;-59
2024/03/05 11:59:41;;;;;;;37.63;14.73;;;;;;;12.46;64.51;100101.22;10298070;28;20046;-59
2024/03/05 12:04:48;;;;;;;36.30;15.25;;;;;;;12.38;64.68;100100.50;10305502;28;20138;-58
2024/03/05 12:09:55;;;;;;;37.47;15.52;;;;;;;12.49;64.38;100102.69;10306240;28;20054;-62
2024/03/05 12:15:04;;;;;;;41.55;15.20;;;;;;;12.37;64.59;100102.38;10344544;28;20136;-58
2024/03/05 12:20:08;;;;;;;37.00;14.45;;;;;;;12.16;65.56;100102.38;10343539;28;20121;-57
2024/03/05 12:25:11;;;;;;;37.78;15.32;;;;;;;12.04;65.41;100102.88;10346293;28;20132;-58
2024/03/05 12:30:14;;;;;;;37.78;14.38;;;;;;;12.12;65.79;100095.69;10344732;28;20454;-58
2024/03/05 12:35:22;;;;;;;33.15;14.43;;;;;;;12.04;65.44;100096.66;10341990;28;20049;-58
2024/03/05 12:40:28;;;;;;;33.83;13.23;;;;;;;12.00;65.36;100098.06;10343296;28;20148;-56
2024/03/05 12:45:31;;;;;;;34.25;13.45;;;;;;;12.02;65.60;100106.78;10345147;28;20050;-61
2024/03/05 12:50:35;;;;;;;28.17;11.48;;;;;;;12.03;65.74;100100.41;10345500;28;20046;-61
2024/03/05 12:55:37;;;;;;;30.02;12.93;;;;;;;11.99;65.86;100102.63;10342554;28;20053;-62
2024/03/05 13:00:39;;;;;;;27.55;12.07;;;;;;;12.12;65.39;100111.88;10338872;28;20130;-61
2024/03/05 13:05:41;;;;;;;32.35;12.00;;;;;;;12.22;65.49;100112.38;10342656;28;20137;-62
2024/03/05 13:10:43;;;;;;;28.60;11.88;;;;;;;12.34;64.96;100107.31;10338002;28;20054;-61
2024/03/05 13:15:45;;;;;;;29.27;10.93;;;;;;;12.43;65.14;100111.53;10299922;28;20050;-63
2024/03/05 13:20:47;;;;;;;30.40;11.10;;;;;;;12.53;64.82;100111.22;10299127;28;20039;-66
2024/03/05 13:25:49;;;;;;;29.55;12.27;;;;;;;12.60;64.79;100112.94;10301945;28;20057;-65
2024/03/05 13:30:54;;;;;;;25.67;9.05;;;;;;;12.77;64.35;100102.69;10298756;28;20563;-63
2024/03/05 13:35:56;;;;;;;20.95;8.25;;;;;;;12.72;64.61;100115.09;10300680;28;20058;-63
2024/03/05 13:40:57;;;;;;;21.52;10.68;;;;;;;12.75;64.31;100115.53;10300539;28;20054;-63
2024/03/05 13:46:00;;;;;;;16.60;8.02;;;;;;;12.62;64.49;100112.75;10297513;28;20085;-62
2024/03/05 13:51:02;;;;;;;18.50;8.15;;;;;;;12.42;64.67;100118.81;10299610;28;20049;-65
2024/03/05 13:56:04;;;;;;;21.25;8.60;;;;;;;12.19;64.59;100127.06;10297444;28;20050;-62
2024/03/05 14:01:06;;;;;;;17.85;8.48;;;;;;;12.12;64.63;100119.94;10297209;28;20058;-63
2024/03/05 14:06:08;;;;;;;20.63;8.30;;;;;;;11.89;65.26;100121.78;10300719;28;20054;-62
2024/03/05 14:11:13;;;;;;;17.30;7.78;;;;;;;11.62;65.94;100123.31;10300288;28;20171;-61
2024/03/05 14:16:17;;;;;;;16.83;7.40;;;;;;;11.57;65.68;100135.66;10297761;28;20050;-61
2024/03/05 14:21:19;;;;;;;14.43;7.35;;;;;;;11.65;65.31;100131.03;10297266;28;20053;-62
2024/03/05 14:26:20;;;;;;;21.05;8.23;;;;;;;11.70;65.77;100128.56;10297423;28;20055;-62
2024/03/05 14:31:22;;;;;;;15.43;7.47;;;;;;;11.81;65.35;100131.81;10303246;28;20577;-62
2024/03/05 14:36:25;;;;;;;14.50;7.20;;;;;;;11.79;64.83;100128.47;10295224;28;20081;-62
2024/03/05 14:41:26;;;;;;;15.43;7.35;;;;;;;11.92;64.70;100131.34;10295672;28;20047;-62
2024/03/05 14:46:27;;;;;;;16.95;6.93;;;;;;;12.03;64.47;100122.78;10298426;28;20054;-62
2024/03/05 14:51:29;;;;;;;13.95;7.72;;;;;;;12.09;64.71;100130.09;10297443;28;20047;-62
2024/03/05 14:56:34;;;;;;;16.02;7.50;;;;;;;12.18;64.03;100135.34;10297542;28;20050;-62
2024/03/05 15:01:35;;;;;;;14.50;6.78;;;;;;;12.32;63.76;100134.44;10292497;28;20066;-62
2024/03/05 15:06:37;;;;;;;12.95;6.70;;;;;;;12.35;63.90;100136.75;10295667;28;20063;-62
2024/03/05 15:11:38;;;;;;;13.77;6.57;;;;;;;12.37;63.88;100137.41;10298601;28;20051;-62
2024/03/05 15:16:40;;;;;;;14.18;6.97;;;;;;;12.45;63.64;100139.13;10301167;28;20111;-64
2024/03/05 15:21:42;;;;;;;16.27;7.22;;;;;;;12.55;63.09;100139.63;10347326;28;20058;-65
2024/03/05 15:26:45;;;;;;;12.45;6.85;;;;;;;12.40;63.63;100131.66;10330622;28;20054;-62
2024/03/05 15:32:04;;;;;;;14.68;6.40;;;;;;;12.25;63.92;100145.16;10303140;28;20046;-64
2024/03/05 15:37:08;;;;;;;14.23;6.45;;;;;;;12.44;63.36;100142.84;10300393;28;20141;-64
2024/03/05 15:42:10;;;;;;;14.48;6.13;;;;;;;12.31;63.09;100143.56;10310832;28;20490;-65
2024/03/05 15:47:19;;;;;;;13.40;6.85;;;;;;;12.09;63.46;100145.44;10296523;28;20058;-64
2024/03/05 15:52:24;;;;;;;13.35;5.95;;;;;;;11.43;65.36;100159.72;10291956;28;20054;-66
2024/03/05 15:57:41;;;;;;;13.90;7.05;;;;;;;11.14;66.52;100170.47;10294023;28;20050;-64
2024/03/05 16:02:43;;;;;;;10.77;5.38;;;;;;;10.68;67.50;100185.69;10279618;28;20140;-61
2024/03/05 16:07:45;;;;;;;10.50;4.82;;;;;;;10.55;67.99;100180.09;10272736;28;20054;-60
2024/03/05 16:12:49;;;;;;;7.78;3.97;;;;;;;10.36;68.48;100177.88;10292629;28;20061;-59
2024/03/05 16:17:55;;;;;;;6.78;3.70;;;;;;;10.24;69.00;100188.16;10279314;28;20054;-60
2024/03/05 16:22:57;;;;;;;9.27;3.45;;;;;;;10.12;69.68;100195.78;10277334;28;20046;-60
2024/03/05 16:27:58;;;;;;;5.43;2.30;;;;;;;9.93;70.18;100192.53;10300240;28;20453;-59
2024/03/05 16:33:00;;;;;;;3.45;1.15;;;;;;;9.92;70.21;100201.59;10303290;28;20046;-61
2024/03/05 16:38:03;;;;;;;4.13;1.55;;;;;;;10.13;70.06;100209.03;10292421;28;20049;-59
2024/03/05 16:43:09;;;;;;;6.15;2.45;;;;;;;10.28;69.90;100201.06;10302505;28;20127;-60
2024/03/05 16:48:11;;;;;;;7.18;3.67;;;;;;;10.41;70.01;100213.13;10310342;28;20069;-58
2024/03/05 16:53:13;;;;;;;8.40;4.05;;;;;;;10.48;70.48;100211.38;10311465;28;20054;-60
2024/03/05 16:58:17;;;;;;;9.27;4.18;;;;;;;10.58;70.60;100214.66;10311871;28;20458;-58
2024/03/05 17:03:21;;;;;;;10.02;5.65;;;;;;;10.63;71.05;100217.66;10310559;28;20125;-60
2024/03/05 17:08:25;;;;;;;11.82;4.75;;;;;;;10.66;71.33;100220.00;10314762;28;20050;-60
2024/03/05 17:13:41;;;;;;;9.90;4.80;;;;;;;10.66;71.47;100224.50;10311181;28;20051;-59
2024/03/05 17:18:43;;;;;;;19.95;9.65;;;;;;;10.54;71.65;100236.69;10311253;28;20477;-59
2024/03/05 17:23:46;;;;;;;17.25;8.00;;;;;;;10.28;72.81;100235.97;10313469;28;20164;-62
2024/03/05 17:28:51;;;;;;;15.63;7.65;;;;;;;10.51;72.35;100241.41;10304114;28;20140;-59
2024/03/05 17:33:53;;;;;;;14.18;7.65;;;;;;;10.61;72.38;100243.03;10302375;28;20043;-59
2024/03/05 17:38:55;;;;;;;13.23;7.07;;;;;;;10.54;72.44;100248.28;10301603;28;20059;-59
2024/03/05 17:43:57;;;;;;;20.25;6.97;;;;;;;10.57;72.77;100258.69;10302086;28;20186;-59
2024/03/05 17:48:59;;;;;;;15.57;5.78;;;;;;;10.58;72.79;100259.50;10301266;28;20046;-58
2024/03/05 17:54:01;;;;;;;13.13;6.85;;;;;;;10.58;72.58;100262.19;10297719;28;20058;-58
2024/03/05 17:59:03;;;;;;;12.07;6.65;;;;;;;10.58;72.90;100265.72;10298983;28;20046;-59
2024/03/05 18:04:05;;;;;;;14.82;6.93;;;;;;;10.56;72.78;100265.06;10299454;28;20054;-59
2024/03/05 18:09:18;;;;;;;13.73;7.57;;;;;;;10.58;72.77;100267.56;10298740;28;20142;-60
2024/03/05 18:14:21;;;;;;;15.32;8.50;;;;;;;10.58;73.04;100272.94;10296937;28;20046;-59
2024/03/05 18:19:25;;;;;;;10.63;6.43;;;;;;;10.38;73.34;100277.94;10299321;28;20141;-59
2024/03/05 18:24:27;;;;;;;11.80;7.70;;;;;;;10.39;73.50;100276.94;10296682;28;20141;-59
2024/03/05 18:29:28;;;;;;;16.90;10.65;;;;;;;10.43;73.53;100292.53;10296096;28;20043;-60
2024/03/05 18:34:31;;;;;;;19.20;8.95;;;;;;;10.52;73.20;100287.94;10294044;28;20065;-59
2024/03/05 18:39:33;;;;;;;20.30;10.35;;;;;;;10.55;72.96;100289.44;10295831;28;20481;-59
2024/03/05 18:44:35;;;;;;;19.38;9.52;;;;;;;10.56;73.06;100289.25;10297587;28;20047;-59
2024/03/05 18:49:41;;;;;;;10.85;5.82;;;;;;;10.60;73.21;100284.34;10290847;28;20055;-59
2024/03/05 18:54:43;;;;;;;15.20;6.67;;;;;;;10.64;72.84;100288.38;10293502;28;20047;-60
2024/03/05 18:59:45;;;;;;;22.50;10.60;;;;;;;10.61;73.05;100292.25;10285384;28;20175;-59
2024/03/05 19:04:46;;;;;;;18.60;9.02;;;;;;;10.62;73.32;100285.84;10296605;28;20052;-60
2024/03/05 19:09:48;;;;;;;14.38;7.30;;;;;;;10.60;72.99;100284.34;10279225;28;20047;-59
2024/03/05 19:14:50;;;;;;;16.20;7.07;;;;;;;10.58;73.49;100284.53;10317522;28;20132;-59
2024/03/05 19:19:51;;;;;;;14.07;5.63;;;;;;;10.42;73.74;100292.69;10339181;28;20057;-58
2024/03/05 19:24:54;;;;;;;16.90;8.52;;;;;;;10.49;73.38;100289.13;10336531;28;20054;-59
2024/03/05 19:29:55;;;;;;;10.57;6.18;;;;;;;10.54;73.28;100287.75;10337232;28;20050;-59
2024/03/05 19:34:57;;;;;;;13.30;5.95;;;;;;;10.56;73.58;100294.63;10335108;28;20610;-59
2024/03/05 19:39:59;;;;;;;13.88;6.15;;;;;;;10.56;73.49;100297.31;10334837;28;20460;-60
2024/03/05 19:45:01;;;;;;;11.07;5.55;;;;;;;10.57;73.14;100298.16;10337259;28;20135;-60
2024/03/05 19:50:07;;;;;;;19.55;6.63;;;;;;;10.57;73.15;100307.06;10335449;28;20409;-59
2024/03/05 19:55:09;;;;;;;16.92;5.93;;;;;;;10.58;73.46;100305.22;10337536;28;20363;-59
2024/03/05 20:00:16;;;;;;;13.05;6.22;;;;;;;10.55;73.32;100309.09;10343845;28;20046;-59
2024/03/05 20:05:19;;;;;;;10.38;5.38;;;;;;;10.52;73.09;100296.84;10342213;28;20077;-59
2024/03/05 20:10:21;;;;;;;11.15;5.68;;;;;;;10.52;73.13;100315.66;10344349;28;20053;-58
2024/03/05 20:15:23;;;;;;;12.43;6.65;;;;;;;10.46;73.19;100310.13;10304289;28;20129;-59
2024/03/05 20:20:24;;;;;;;12.55;6.43;;;;;;;10.45;73.11;100314.69;10302395;28;20085;-58
2024/03/05 20:25:26;;;;;;;12.50;6.65;;;;;;;10.45;73.37;100330.81;10301486;28;20054;-59
2024/03/05 20:30:28;;;;;;;14.55;7.18;;;;;;;10.31;73.43;100328.88;10306354;28;20053;-59
2024/03/05 20:35:31;;;;;;;15.65;7.25;;;;;;;10.35;73.45;100337.41;10300039;28;20074;-59
2024/03/05 20:40:32;;;;;;;13.90;7.28;;;;;;;10.38;73.00;100343.25;10301965;28;20043;-60
2024/03/05 20:45:34;;;;;;;18.75;7.15;;;;;;;10.38;73.40;100348.63;10302732;28;20417;-59
2024/03/05 20:50:36;;;;;;;17.88;9.27;;;;;;;10.40;73.17;100348.47;10303800;28;20391;-60
2024/03/05 20:55:37;;;;;;;17.92;8.60;;;;;;;10.40;73.55;100346.63;10304470;28;20145;-60
2024/03/05 21:00:40;;;;;;;20.05;9.55;;;;;;;10.36;73.79;100342.59;10303164;28;20382;-59
2024/03/05 21:05:42;;;;;;;14.88;8.18;;;;;;;10.29;74.01;100349.69;10302312;28;20454;-60
2024/03/05 21:10:45;;;;;;;16.13;8.38;;;;;;;10.26;73.96;100361.59;10284751;28;20078;-59
2024/03/05 21:15:47;;;;;;;14.98;8.02;;;;;;;10.14;73.96;100362.97;10298879;28;20389;-59
2024/03/05 21:20:48;;;;;;;13.98;7.05;;;;;;;10.09;74.21;100365.34;10302031;28;20046;-60
2024/03/05 21:25:50;;;;;;;13.88;6.60;;;;;;;10.02;74.24;100369.72;10298666;28;20057;-60
2024/03/05 21:31:11;;;;;;;19.70;8.43;;;;;;;10.06;74.27;100363.84;10299606;28;20498;-60
2024/03/05 21:36:13;;;;;;;17.48;9.43;;;;;;;10.11;74.30;100379.44;10297937;28;20052;-60
2024/03/05 21:41:15;;;;;;;19.90;12.23;;;;;;;10.07;74.05;100381.63;10301151;28;20062;-59
2024/03/05 21:46:17;;;;;;;12.50;7.53;;;;;;;9.95;74.64;100384.84;10301407;28;20050;-60
2024/03/05 21:51:18;;;;;;;16.50;7.57;;;;;;;10.13;74.15;100382.81;10302878;28;20077;-61
2024/03/05 21:56:20;;;;;;;12.60;7.60;;;;;;;10.07;74.05;100387.00;10302017;28;20046;-60
2024/03/05 22:01:22;;;;;;;15.45;7.57;;;;;;;10.09;74.52;100378.75;10304457;28;20041;-60
2024/03/05 22:06:24;;;;;;;9.77;5.95;;;;;;;10.11;74.08;100377.59;10285179;28;20506;-60
2024/03/05 22:11:27;;;;;;;11.80;5.45;;;;;;;10.08;74.07;100374.41;10301743;28;20116;-60
2024/03/05 22:16:29;;;;;;;10.55;6.13;;;;;;;10.09;73.92;100385.00;10300402;28;20046;-60
2024/03/05 22:21:34;;;;;;;12.57;7.05;;;;;;;10.08;74.00;100383.31;10298495;28;20046;-59
2024/03/05 22:26:37;;;;;;;13.27;6.72;;;;;;;10.08;73.99;100388.66;10297577;28;20050;-60
2024/03/05 22:31:38;;;;;;;9.23;4.93;;;;;;;10.12;73.45;100381.13;10301932;28;20046;-61
2024/03/05 22:36:40;;;;;;;8.52;4.72;;;;;;;10.16;73.70;100378.94;10296776;28;20141;-62
2024/03/05 22:41:44;;;;;;;9.35;5.78;;;;;;;10.15;73.44;100374.56;10295194;28;20833;-63
2024/03/05 22:46:47;;;;;;;10.35;5.65;;;;;;;10.17;73.44;100380.59;10300779;28;20050;-62
2024/03/05 22:51:49;;;;;;;10.32;5.40;;;;;;;10.16;73.29;100385.13;10298075;28;20077;-63
2024/03/05 22:56:50;;;;;;;10.27;5.18;;;;;;;10.08;73.76;100387.84;10295883;28;20050;-63
2024/03/05 23:01:51;;;;;;;9.55;5.40;;;;;;;10.11;73.72;100391.03;10296276;28;20078;-62